Committee: Past 24 Hour Conditions

 

Repulse Bay Airport

03:00 AM CST 26 November 2014
This table is a summary of hourly weather conditions for the past 24 hours.
Date / Time
(CST)
Wind(knots) Conditions Visibility(km) Pressure(kPa) Air tempC) Relative humidity(%) Dew pointC) Wind Chill
26 November 2014
3:00 NNW 17 gust 22 N/A N/A 100.6 -26 72 -29 -40
2:00 NNW 18 gust 24 N/A N/A 100.6 -25 73 -29 -40
1:00 NNW 14 N/A N/A 100.6 -25 74 -28 -38
0:00 NNW 14 N/A N/A 100.6 -25 74 -28 -38
25 November 2014
23:00 NNW 14 N/A N/A 100.5 -25 74 -28 -38
22:00 NNW 14 N/A N/A 100.5 -25 73 -29 -39
21:00 W 6 N/A N/A 100.6 -27 73 -30 -35
20:00 NW 5 N/A N/A 100.6 -28 72 -31 -36
19:00 NW 5 N/A N/A 100.6 -28 71 -32 -36
18:00 WNW 7 N/A N/A 100.6 -28 72 -31 -37
17:00 N/A N/A N/A N/A N/A N/A N/A *
16:00 NNW 17 gust 23 Light Snow 8 100.6 -26 73 -30 -41
15:00 NNW 16 gust 21 Ice Crystals 5 100.6 -27 73 -30 -41
14:00 N 21 Ice Crystals 3 100.5 -27 73 -30 -43
13:00 NNW 18 gust 25 Ice Crystals 8 100.5 -27 71 -31 -42
12:00 N 20 gust 27 Ice Crystals 2 100.5 -27 71 -31 -43
11:00 NNW 18 gust 24 Light Snow 8 100.5 -27 71 -31 -43
10:00 NNW 17 gust 23 Light Snow 8 100.5 -27 73 -30 -41
9:00 NNW 10 gust 18 Light Snow 16 100.5 -26 72 -30 -38
8:00 NW 8 Ice Crystals 16 100.5 -26 72 -30 -37
7:00 NW 8 N/A N/A 100.5 -26 73 -29 -36
6:00 N 20 N/A N/A 100.4 -26 73 -30 -42
5:00 NNW 17 N/A N/A 100.4 -25 73 -29 -40
4:00 NNW 16 N/A N/A 100.4 -25 73 -29 -39
3:00 NNW 7 N/A N/A 100.4 -26 74 -29 -36
 
Map of Arctic - Eastern Arctic marine weather areas Baker Lake Airport Chesterfield Inlet Airport Coral Harbour Airport Gjoa Haven Airport Kugaaruk Airport Rankin Inlet Airport Shepherd Bay Airport Whale Cove Airport Arctic Bay Brevoort Island Qikiqtarjuaq Airport Cape Dorset Airport Cape Dyer Cape Hooper Clyde Airport Grise Fiord Airport Hall Beach Airport Igloolik Airport Iqaluit Airport Longstaff Bluff Pangnirtung Airport Pond Inlet Airport Repulse Bay Airport Resolute Airport Resolution Island Rowley Island Airport Taloyoak Airport Wager Bay Akulivik Airport Ivujivik Airport Puvirnituq Airport Kangiqsujuaq Airport Kangirsuk Airport Quaqtaq Airport Tasiujaq Airport Cape Kakkiviak Cape Kiglapait Nain Airport Saglek Cape Mercy Kimmirut Airport Aupaluk Airport Salluit Airport Kangiqsualujjuaq Airport Fort Ross
Legend: buoyBuoy land stationLand Station